Time;durP1;ratioP1;P1;durP2;ratioP2;P2;SDS_P1;SDS_P2;PMS_P1;PMS_P2;Temp;Humidity;BMP_temperature;BMP_pressure;BME280_temperature;BME280_humidity;BME280_pressure;Samples;Min_cycle;Max_cycle;Signal;HPM_P1;HPM_P2
2023/03/10 00:00:17;;;;;;;;;;;1.20;99.90;;;;;;5083507;28;19942;-47
2023/03/10 00:02:48;;;;;;;;;;;1.20;99.90;;;;;;5077803;28;19985;-44
2023/03/10 00:05:15;;;;;;;;;;;1.20;99.90;;;;;;5070410;28;19951;-45
2023/03/10 00:07:41;;;;;;;;;;;1.20;99.90;;;;;;5069058;28;19953;-45
2023/03/10 00:10:11;;;;;;;;;;;1.20;99.90;;;;;;5053798;28;19981;-47
2023/03/10 00:12:38;;;;;;;;;;;1.20;99.90;;;;;;5053894;28;19937;-48
2023/03/10 00:15:05;;;;;;;;;;;1.10;99.90;;;;;;5070258;28;20028;-48
2023/03/10 00:17:31;;;;;;;;;;;1.20;99.90;;;;;;5069325;28;19977;-48
2023/03/10 00:19:58;;;;;;;;;;;1.20;99.90;;;;;;5068972;28;20006;-43
2023/03/10 00:22:25;;;;;;;;;;;1.10;99.90;;;;;;5053827;28;19983;-46
2023/03/10 00:24:51;;;;;;;;;;;1.20;99.90;;;;;;5047534;28;19935;-42
2023/03/10 00:27:19;;;;;;;;;;;1.20;99.90;;;;;;5051994;28;20430;-47
2023/03/10 00:29:46;;;;;;;;;;;1.20;99.90;;;;;;5057760;28;20001;-50
2023/03/10 00:32:13;;;;;;;;;;;1.20;99.90;;;;;;5055739;28;20367;-48
2023/03/10 00:34:39;;;;;;;;;;;1.20;99.90;;;;;;5075952;28;20395;-49
2023/03/10 00:37:06;;;;;;;;;;;1.20;99.90;;;;;;5057306;28;20304;-49
2023/03/10 00:39:32;;;;;;;;;;;1.20;99.90;;;;;;5056157;28;19995;-52
2023/03/10 00:41:59;;;;;;;;;;;1.20;99.90;;;;;;5056785;28;20034;-47
2023/03/10 00:44:28;;;;;;;;;;;1.20;99.90;;;;;;5087699;28;20091;-47
2023/03/10 00:46:54;;;;;;;;;;;1.20;99.90;;;;;;5074121;28;19965;-49
2023/03/10 00:49:21;;;;;;;;;;;1.20;99.90;;;;;;5071784;28;19989;-47
2023/03/10 00:51:47;;;;;;;;;;;1.20;99.90;;;;;;5056404;28;19947;-44
2023/03/10 00:54:14;;;;;;;;;;;1.20;99.90;;;;;;5042612;28;19980;-48
2023/03/10 00:56:41;;;;;;;;;;;1.20;99.90;;;;;;5056510;28;20040;-44
2023/03/10 00:59:07;;;;;;;;;;;1.20;99.90;;;;;;5053578;28;20003;-46
2023/03/10 01:01:36;;;;;;;;;;;1.20;99.90;;;;;;5056637;28;20433;-49
2023/03/10 01:04:03;;;;;;;;;;;1.20;99.90;;;;;;5064685;28;20001;-48
2023/03/10 01:06:30;;;;;;;;;;;1.20;99.90;;;;;;5065910;28;20327;-48
2023/03/10 01:08:56;;;;;;;;;;;1.10;99.90;;;;;;5047974;28;19998;-52
2023/03/10 01:11:23;;;;;;;;;;;1.20;99.90;;;;;;5059770;28;19982;-49
2023/03/10 01:13:50;;;;;;;;;;;1.20;99.90;;;;;;5060340;28;19937;-52
2023/03/10 01:16:17;;;;;;;;;;;1.20;99.90;;;;;;5070560;28;20001;-47
2023/03/10 01:18:45;;;;;;;;;;;1.20;99.90;;;;;;5069462;28;19947;-47
2023/03/10 01:21:14;;;;;;;;;;;1.20;99.90;;;;;;5052906;28;19996;-50
2023/03/10 01:23:41;;;;;;;;;;;1.20;99.90;;;;;;5067709;28;20315;-49
2023/03/10 01:26:08;;;;;;;;;;;1.20;99.90;;;;;;5037201;28;20030;-48
2023/03/10 01:28:34;;;;;;;;;;;1.20;99.90;;;;;;5068080;28;19992;-48
2023/03/10 01:31:01;;;;;;;;;;;1.20;99.90;;;;;;5068783;28;20344;-48
2023/03/10 01:33:27;;;;;;;;;;;1.10;99.90;;;;;;5057701;28;19986;-45
2023/03/10 01:35:55;;;;;;;;;;;1.10;99.90;;;;;;5093477;28;19988;-48
2023/03/10 01:38:22;;;;;;;;;;;1.20;99.90;;;;;;5073663;28;19933;-48
2023/03/10 01:40:49;;;;;;;;;;;1.20;99.90;;;;;;5072712;28;19997;-51
2023/03/10 01:43:28;;;;;;;;;;;1.20;99.90;;;;;;5072734;28;19990;-46
2023/03/10 01:46:28;;;;;;;;;;;1.20;99.90;;;;;;5054429;28;19980;-50
2023/03/10 01:48:55;;;;;;;;;;;1.20;99.90;;;;;;5072848;28;20454;-48
2023/03/10 01:51:23;;;;;;;;;;;1.20;99.90;;;;;;5077233;28;20006;-47
2023/03/10 01:53:49;;;;;;;;;;;1.20;99.90;;;;;;5077490;28;20003;-49
2023/03/10 01:56:16;;;;;;;;;;;1.20;99.90;;;;;;5053940;28;20409;-46
2023/03/10 01:58:44;;;;;;;;;;;1.20;99.90;;;;;;5071829;28;20272;-46
2023/03/10 02:01:10;;;;;;;;;;;1.20;99.90;;;;;;5072249;28;20265;-50
2023/03/10 02:03:37;;;;;;;;;;;1.20;99.90;;;;;;5054628;28;19951;-49
2023/03/10 02:06:04;;;;;;;;;;;1.20;99.90;;;;;;5055961;28;20352;-50
2023/03/10 02:08:33;;;;;;;;;;;1.20;99.90;;;;;;5055127;28;20284;-50
2023/03/10 02:11:00;;;;;;;;;;;1.10;99.90;;;;;;5076412;28;19981;-50
2023/03/10 02:13:26;;;;;;;;;;;1.20;99.90;;;;;;5050336;28;19991;-46
2023/03/10 02:15:53;;;;;;;;;;;1.10;99.90;;;;;;5061080;28;19952;-47
2023/03/10 02:18:20;;;;;;;;;;;1.20;99.90;;;;;;5073415;28;20001;-48
2023/03/10 02:20:48;;;;;;;;;;;1.20;99.90;;;;;;5077058;28;19937;-50
2023/03/10 02:23:15;;;;;;;;;;;1.20;99.90;;;;;;5077007;28;19965;-46
2023/03/10 02:25:45;;;;;;;;;;;1.20;99.90;;;;;;5054662;28;20016;-52
2023/03/10 02:28:13;;;;;;;;;;;1.10;99.90;;;;;;5073930;28;20398;-48
2023/03/10 02:30:40;;;;;;;;;;;1.20;99.90;;;;;;5073436;28;19939;-48
2023/03/10 02:33:07;;;;;;;;;;;1.20;99.90;;;;;;5040973;28;20002;-47
2023/03/10 02:35:34;;;;;;;;;;;1.30;99.90;;;;;;5050234;28;19951;-48
2023/03/10 02:38:01;;;;;;;;;;;1.20;99.90;;;;;;5071860;28;19939;-46
2023/03/10 02:40:32;;;;;;;;;;;1.20;99.90;;;;;;5054905;28;19992;-48
2023/03/10 02:42:59;;;;;;;;;;;1.20;99.90;;;;;;5054947;28;19952;-47
2023/03/10 02:45:28;;;;;;;;;;;1.20;99.90;;;;;;5073042;28;20029;-49
2023/03/10 02:47:55;;;;;;;;;;;1.20;99.90;;;;;;5075236;28;20018;-47
2023/03/10 02:50:21;;;;;;;;;;;1.10;99.90;;;;;;5077874;28;20268;-51
2023/03/10 02:52:50;;;;;;;;;;;1.20;99.90;;;;;;5071131;28;19956;-50
2023/03/10 02:55:17;;;;;;;;;;;1.20;99.90;;;;;;5053580;28;19941;-45
2023/03/10 02:57:44;;;;;;;;;;;1.20;99.90;;;;;;5054698;28;19980;-47
2023/03/10 03:00:12;;;;;;;;;;;1.20;99.90;;;;;;5071232;28;20041;-51
2023/03/10 03:02:40;;;;;;;;;;;1.20;99.90;;;;;;5054656;28;20035;-46
2023/03/10 03:05:07;;;;;;;;;;;1.20;99.90;;;;;;5045930;28;19956;-50
2023/03/10 03:07:33;;;;;;;;;;;1.20;99.90;;;;;;5044837;28;19989;-50
2023/03/10 03:10:00;;;;;;;;;;;1.20;99.90;;;;;;5053732;28;20032;-43
2023/03/10 03:12:27;;;;;;;;;;;1.20;99.90;;;;;;5054762;28;19936;-47
2023/03/10 03:14:53;;;;;;;;;;;1.10;99.90;;;;;;5050891;28;19989;-47
2023/03/10 03:17:20;;;;;;;;;;;1.20;99.90;;;;;;5059357;28;19939;-49
2023/03/10 03:19:48;;;;;;;;;;;1.20;99.90;;;;;;5070934;28;20438;-46
2023/03/10 03:22:15;;;;;;;;;;;1.20;99.90;;;;;;5070301;28;20378;-44
2023/03/10 03:24:41;;;;;;;;;;;1.20;99.90;;;;;;5071672;28;20343;-45
2023/03/10 03:27:08;;;;;;;;;;;1.30;99.90;;;;;;5070732;28;19988;-48
2023/03/10 03:29:34;;;;;;;;;;;1.20;99.90;;;;;;5053632;28;19944;-51
2023/03/10 03:32:01;;;;;;;;;;;1.20;99.90;;;;;;5064402;28;20003;-48
2023/03/10 03:34:28;;;;;;;;;;;1.20;99.90;;;;;;5050675;28;19983;-48
2023/03/10 03:36:56;;;;;;;;;;;1.20;99.90;;;;;;5074656;28;19990;-46
2023/03/10 03:39:22;;;;;;;;;;;1.20;99.90;;;;;;5077083;28;19998;-48
2023/03/10 03:41:52;;;;;;;;;;;1.20;99.90;;;;;;5067019;28;19992;-49
2023/03/10 03:44:18;;;;;;;;;;;1.20;99.90;;;;;;5053246;28;19959;-47
2023/03/10 03:46:45;;;;;;;;;;;1.30;99.90;;;;;;5054606;28;20426;-47
2023/03/10 03:49:11;;;;;;;;;;;1.20;99.90;;;;;;5071915;28;19984;-49
2023/03/10 03:51:38;;;;;;;;;;;1.20;99.90;;;;;;5071429;28;19940;-46
2023/03/10 03:54:06;;;;;;;;;;;1.20;99.90;;;;;;5053178;28;19949;-46
2023/03/10 03:56:33;;;;;;;;;;;1.20;99.90;;;;;;5053120;28;19991;-45
2023/03/10 03:58:59;;;;;;;;;;;1.20;99.90;;;;;;5047779;28;20353;-48
2023/03/10 04:01:26;;;;;;;;;;;1.20;99.90;;;;;;5040960;28;19983;-50
2023/03/10 04:03:52;;;;;;;;;;;1.20;99.90;;;;;;5075496;28;19985;-49
2023/03/10 04:06:19;;;;;;;;;;;1.20;99.90;;;;;;5055760;28;19938;-45
2023/03/10 04:08:46;;;;;;;;;;;1.20;99.90;;;;;;5056216;28;19941;-47
2023/03/10 04:11:14;;;;;;;;;;;1.20;99.90;;;;;;5056931;28;20404;-45
2023/03/10 04:13:40;;;;;;;;;;;1.20;99.90;;;;;;5069137;28;20013;-47
2023/03/10 04:16:07;;;;;;;;;;;1.20;99.90;;;;;;5057223;28;19942;-45
2023/03/10 04:18:34;;;;;;;;;;;1.20;99.90;;;;;;5056322;28;20428;-46
2023/03/10 04:21:01;;;;;;;;;;;1.20;99.90;;;;;;5070444;28;19939;-44
2023/03/10 04:23:27;;;;;;;;;;;1.20;99.90;;;;;;5074330;28;19992;-46
2023/03/10 04:25:54;;;;;;;;;;;1.20;99.90;;;;;;5056427;28;20425;-45
2023/03/10 04:28:22;;;;;;;;;;;1.20;99.90;;;;;;5093366;28;19942;-46
2023/03/10 04:30:49;;;;;;;;;;;1.20;99.90;;;;;;5075864;28;20001;-43
2023/03/10 04:33:15;;;;;;;;;;;1.20;99.90;;;;;;5055842;28;20437;-44
2023/03/10 04:35:42;;;;;;;;;;;1.20;99.90;;;;;;5055636;28;19996;-46
2023/03/10 04:38:09;;;;;;;;;;;1.20;99.90;;;;;;5056084;28;20047;-45
2023/03/10 04:40:36;;;;;;;;;;;1.30;99.90;;;;;;5068342;28;19977;-48
2023/03/10 04:43:03;;;;;;;;;;;1.20;99.90;;;;;;5039036;28;19943;-49
2023/03/10 04:45:31;;;;;;;;;;;1.20;99.90;;;;;;5050844;28;19959;-44
2023/03/10 04:47:58;;;;;;;;;;;1.20;99.90;;;;;;5069946;28;19972;-43
2023/03/10 04:50:24;;;;;;;;;;;1.30;99.90;;;;;;5068482;28;19983;-44
2023/03/10 04:52:51;;;;;;;;;;;1.20;99.90;;;;;;5066985;28;19937;-46
2023/03/10 04:55:18;;;;;;;;;;;1.20;99.90;;;;;;5061555;28;20391;-45
2023/03/10 04:57:44;;;;;;;;;;;1.20;99.90;;;;;;5074931;28;20400;-45
2023/03/10 05:00:11;;;;;;;;;;;1.20;99.90;;;;;;5071171;28;19943;-45
2023/03/10 05:02:39;;;;;;;;;;;1.20;99.90;;;;;;5072656;28;20312;-45
2023/03/10 05:05:06;;;;;;;;;;;1.20;99.90;;;;;;5055222;28;19939;-46
2023/03/10 05:07:33;;;;;;;;;;;1.20;99.90;;;;;;5074485;28;20274;-45
2023/03/10 05:10:00;;;;;;;;;;;1.20;99.90;;;;;;5051861;28;19991;-46
2023/03/10 05:12:26;;;;;;;;;;;1.20;99.90;;;;;;5076559;28;20286;-45
2023/03/10 05:14:53;;;;;;;;;;;1.20;99.90;;;;;;5080628;28;19951;-45
2023/03/10 05:17:19;;;;;;;;;;;1.20;99.90;;;;;;5063301;28;19988;-44
2023/03/10 05:19:47;;;;;;;;;;;1.20;99.90;;;;;;5068734;28;19943;-48
2023/03/10 05:22:14;;;;;;;;;;;1.20;99.90;;;;;;5071883;28;19993;-45
2023/03/10 05:24:41;;;;;;;;;;;1.20;99.90;;;;;;5057012;28;20069;-46
2023/03/10 05:27:09;;;;;;;;;;;1.20;99.90;;;;;;5074501;28;20469;-45
2023/03/10 05:29:37;;;;;;;;;;;1.20;99.90;;;;;;5072964;28;19944;-46
2023/03/10 05:32:04;;;;;;;;;;;1.20;99.90;;;;;;5073132;28;19978;-44
2023/03/10 05:34:31;;;;;;;;;;;1.20;99.90;;;;;;5046299;28;20035;-44
2023/03/10 05:36:59;;;;;;;;;;;1.10;99.90;;;;;;5073098;28;19951;-46
2023/03/10 05:39:25;;;;;;;;;;;1.20;99.90;;;;;;5055613;28;20035;-46
2023/03/10 05:41:52;;;;;;;;;;;1.20;99.90;;;;;;5072325;28;19949;-48
2023/03/10 05:44:19;;;;;;;;;;;1.20;99.90;;;;;;5048388;28;20013;-46
2023/03/10 05:46:45;;;;;;;;;;;1.20;99.90;;;;;;5067941;28;20372;-46
2023/03/10 05:49:12;;;;;;;;;;;1.20;99.90;;;;;;5054517;28;20441;-46
2023/03/10 05:51:39;;;;;;;;;;;1.20;99.90;;;;;;5075848;28;19937;-47
2023/03/10 05:54:08;;;;;;;;;;;1.20;99.90;;;;;;5055403;28;20031;-49
2023/03/10 05:56:34;;;;;;;;;;;1.20;99.90;;;;;;5058957;28;19942;-47
2023/03/10 05:59:01;;;;;;;;;;;1.20;99.90;;;;;;5052167;28;20005;-48
2023/03/10 06:01:28;;;;;;;;;;;1.20;99.90;;;;;;5070325;28;19938;-45
2023/03/10 06:03:55;;;;;;;;;;;1.20;99.90;;;;;;5048537;28;20000;-48
2023/03/10 06:06:21;;;;;;;;;;;1.20;99.90;;;;;;5067627;28;19981;-47
2023/03/10 06:08:48;;;;;;;;;;;1.20;99.90;;;;;;5071109;28;19940;-47
2023/03/10 06:11:17;;;;;;;;;;;1.20;99.90;;;;;;5071857;28;19935;-46
2023/03/10 06:13:43;;;;;;;;;;;1.20;99.90;;;;;;5069149;28;20337;-45
2023/03/10 06:16:10;;;;;;;;;;;1.20;99.90;;;;;;5055653;28;19942;-46
2023/03/10 06:18:37;;;;;;;;;;;1.30;99.90;;;;;;5051617;28;19942;-48
2023/03/10 06:21:04;;;;;;;;;;;1.20;99.90;;;;;;5031407;28;20411;-48
2023/03/10 06:23:31;;;;;;;;;;;1.20;99.90;;;;;;5032377;28;19942;-49
2023/03/10 06:25:58;;;;;;;;;;;1.20;99.90;;;;;;5021870;28;20460;-48
2023/03/10 06:28:26;;;;;;;;;;;1.20;99.90;;;;;;5030690;28;19983;-48
2023/03/10 06:30:55;;;;;;;;;;;1.20;99.90;;;;;;5026905;28;19950;-44
2023/03/10 06:33:22;;;;;;;;;;;1.30;99.90;;;;;;5047193;28;19940;-50
2023/03/10 06:35:49;;;;;;;;;;;1.20;99.90;;;;;;5031671;28;19944;-51
2023/03/10 06:38:15;;;;;;;;;;;1.30;99.90;;;;;;5030640;28;20449;-50
2023/03/10 06:40:42;;;;;;;;;;;1.20;99.90;;;;;;5032404;28;19942;-48
2023/03/10 06:43:09;;;;;;;;;;;1.30;99.90;;;;;;5031280;28;19984;-47
2023/03/10 06:45:36;;;;;;;;;;;1.30;99.90;;;;;;5028686;28;20015;-50
2023/03/10 06:48:03;;;;;;;;;;;1.30;99.90;;;;;;5021485;28;19985;-49
2023/03/10 06:50:30;;;;;;;;;;;1.20;99.90;;;;;;5027672;28;20042;-52
2023/03/10 06:52:57;;;;;;;;;;;1.30;99.90;;;;;;5027295;28;20374;-50
2023/03/10 06:55:23;;;;;;;;;;;1.30;99.90;;;;;;5023012;28;20005;-51
2023/03/10 06:57:50;;;;;;;;;;;1.30;99.90;;;;;;5037911;28;20443;-50
2023/03/10 07:00:18;;;;;;;;;;;1.30;99.90;;;;;;5024139;28;20481;-52
2023/03/10 07:02:46;;;;;;;;;;;1.30;99.90;;;;;;5044532;28;20050;-51
2023/03/10 07:05:13;;;;;;;;;;;1.30;99.90;;;;;;5030092;28;20012;-50
2023/03/10 07:07:39;;;;;;;;;;;1.40;99.90;;;;;;5029997;28;20005;-50
2023/03/10 07:10:06;;;;;;;;;;;1.30;99.90;;;;;;5030905;28;20059;-53
2023/03/10 07:12:33;;;;;;;;;;;1.40;99.90;;;;;;5030400;28;19946;-51
2023/03/10 07:14:59;;;;;;;;;;;1.40;99.90;;;;;;5031095;28;19942;-49
2023/03/10 07:17:26;;;;;;;;;;;1.40;99.90;;;;;;5030756;28;19984;-53
2023/03/10 07:19:54;;;;;;;;;;;1.40;99.90;;;;;;5040286;28;19991;-51
2023/03/10 07:22:21;;;;;;;;;;;1.40;99.90;;;;;;5051187;28;20492;-49
2023/03/10 07:24:47;;;;;;;;;;;1.40;99.90;;;;;;5049113;28;20450;-53
2023/03/10 07:27:14;;;;;;;;;;;1.40;99.90;;;;;;5049707;28;19984;-52
2023/03/10 07:29:41;;;;;;;;;;;1.40;99.90;;;;;;5050785;28;19946;-49
2023/03/10 07:32:07;;;;;;;;;;;1.40;99.90;;;;;;5050367;28;20004;-54
2023/03/10 07:34:34;;;;;;;;;;;1.40;99.90;;;;;;5049966;28;20343;-53
2023/03/10 07:37:02;;;;;;;;;;;1.40;99.90;;;;;;5044692;28;19944;-54
2023/03/10 07:39:29;;;;;;;;;;;1.40;99.90;;;;;;5045539;28;19938;-51
2023/03/10 07:41:55;;;;;;;;;;;1.50;99.90;;;;;;5046447;28;19942;-53
2023/03/10 07:44:22;;;;;;;;;;;1.40;99.90;;;;;;5049682;28;20280;-51
2023/03/10 07:46:48;;;;;;;;;;;1.40;99.90;;;;;;5051375;28;20026;-53
2023/03/10 07:49:15;;;;;;;;;;;1.40;99.90;;;;;;5046575;28;20010;-53
2023/03/10 07:51:42;;;;;;;;;;;1.40;99.90;;;;;;5051135;28;19937;-50
2023/03/10 07:54:10;;;;;;;;;;;1.50;99.90;;;;;;5051382;28;20397;-53
2023/03/10 07:56:37;;;;;;;;;;;1.40;99.90;;;;;;5051850;28;19966;-51
2023/03/10 07:59:03;;;;;;;;;;;1.40;99.90;;;;;;5046967;28;19949;-55
2023/03/10 08:01:30;;;;;;;;;;;1.50;99.90;;;;;;5051071;28;19987;-55
2023/03/10 08:03:57;;;;;;;;;;;1.50;99.90;;;;;;5046616;28;20435;-47
2023/03/10 08:06:24;;;;;;;;;;;1.40;99.90;;;;;;5054794;28;19962;-53
2023/03/10 08:08:51;;;;;;;;;;;1.50;99.90;;;;;;5042167;28;19949;-50
2023/03/10 08:11:19;;;;;;;;;;;1.50;99.90;;;;;;5056715;28;20390;-50
2023/03/10 08:13:46;;;;;;;;;;;1.50;99.90;;;;;;5055183;28;20002;-54
2023/03/10 08:16:13;;;;;;;;;;;1.50;99.90;;;;;;5053185;28;19948;-52
2023/03/10 08:18:40;;;;;;;;;;;1.50;99.90;;;;;;5051431;28;19955;-46
2023/03/10 08:21:07;;;;;;;;;;;1.50;99.90;;;;;;5065862;28;20383;-54
2023/03/10 08:23:33;;;;;;;;;;;1.50;99.90;;;;;;5082615;28;19980;-55
2023/03/10 08:26:00;;;;;;;;;;;1.60;99.90;;;;;;5071721;28;20060;-52
2023/03/10 08:28:29;;;;;;;;;;;1.60;99.90;;;;;;5051338;28;19949;-51
2023/03/10 08:30:56;;;;;;;;;;;1.60;99.90;;;;;;5058803;28;19947;-50
2023/03/10 08:33:23;;;;;;;;;;;1.50;99.90;;;;;;5059024;28;20006;-54
2023/03/10 08:35:50;;;;;;;;;;;1.60;99.90;;;;;;5061261;28;20462;-51
2023/03/10 08:38:16;;;;;;;;;;;1.60;99.90;;;;;;5080798;28;19948;-54
2023/03/10 08:40:43;;;;;;;;;;;1.60;99.90;;;;;;5077097;28;19937;-55
2023/03/10 08:43:10;;;;;;;;;;;1.60;99.90;;;;;;5054633;28;20031;-50
2023/03/10 08:45:38;;;;;;;;;;;1.60;99.90;;;;;;5071816;28;20289;-51
2023/03/10 08:48:05;;;;;;;;;;;1.60;99.90;;;;;;5057211;28;19990;-46
2023/03/10 08:50:31;;;;;;;;;;;1.60;99.90;;;;;;5075974;28;20030;-54
2023/03/10 08:52:58;;;;;;;;;;;1.60;99.90;;;;;;5073238;28;19993;-49
2023/03/10 08:55:25;;;;;;;;;;;1.60;99.90;;;;;;5075426;28;19936;-54
2023/03/10 08:57:51;;;;;;;;;;;1.60;99.90;;;;;;5064875;28;20005;-54
2023/03/10 09:00:18;;;;;;;;;;;1.60;99.90;;;;;;5072981;28;19985;-55
2023/03/10 09:02:46;;;;;;;;;;;1.60;99.90;;;;;;5074822;28;20015;-50
2023/03/10 09:05:13;;;;;;;;;;;1.70;99.90;;;;;;5060395;28;19938;-52
2023/03/10 09:07:40;;;;;;;;;;;1.60;99.90;;;;;;5054348;28;20019;-46
2023/03/10 09:10:06;;;;;;;;;;;1.60;99.90;;;;;;5071541;28;19994;-53
2023/03/10 09:12:33;;;;;;;;;;;1.70;99.90;;;;;;5071456;28;19943;-49
2023/03/10 09:15:00;;;;;;;;;;;1.70;99.90;;;;;;5052400;28;19956;-52
2023/03/10 09:17:27;;;;;;;;;;;1.70;99.90;;;;;;5052067;28;20366;-48
2023/03/10 09:19:58;;;;;;;;;;;1.70;99.90;;;;;;5071809;28;19976;-53
2023/03/10 09:22:24;;;;;;;;;;;1.70;99.90;;;;;;5072372;28;20216;-55
2023/03/10 09:24:51;;;;;;;;;;;1.70;99.90;;;;;;5067935;28;19941;-54
2023/03/10 09:27:18;;;;;;;;;;;1.70;99.90;;;;;;5051783;28;20071;-54
2023/03/10 09:29:44;;;;;;;;;;;1.70;99.90;;;;;;5053582;28;20097;-54
2023/03/10 09:32:11;;;;;;;;;;;1.70;99.90;;;;;;5055966;28;19987;-57
2023/03/10 09:34:38;;;;;;;;;;;1.70;99.90;;;;;;5054137;28;19968;-53
2023/03/10 09:37:06;;;;;;;;;;;1.60;99.90;;;;;;5054014;28;19945;-57
2023/03/10 09:39:32;;;;;;;;;;;1.60;99.90;;;;;;5054091;28;19987;-57
2023/03/10 09:42:04;;;;;;;;;;;1.60;99.90;;;;;;5053896;28;19983;-57
2023/03/10 09:44:33;;;;;;;;;;;1.70;99.90;;;;;;5053913;28;20357;-53
2023/03/10 09:47:05;;;;;;;;;;;1.60;99.90;;;;;;5035981;28;19956;-57
2023/03/10 09:49:33;;;;;;;;;;;1.70;99.90;;;;;;5054094;28;20005;-58
2023/03/10 09:51:59;;;;;;;;;;;1.70;99.90;;;;;;5071149;28;20413;-56
2023/03/10 09:54:32;;;;;;;;;;;1.70;99.90;;;;;;5073768;28;19937;-56
2023/03/10 09:56:59;;;;;;;;;;;1.70;99.90;;;;;;5073720;28;20336;-57
2023/03/10 09:59:28;;;;;;;;;;;1.70;99.90;;;;;;5072477;28;19943;-58
2023/03/10 10:01:55;;;;;;;;;;;1.70;99.90;;;;;;5055999;28;19939;-48
2023/03/10 10:04:22;;;;;;;;;;;1.70;99.90;;;;;;5077117;28;19937;-60
2023/03/10 10:06:49;;;;;;;;;;;1.70;99.90;;;;;;5055410;28;20427;-53
2023/03/10 10:09:17;;;;;;;;;;;1.70;99.90;;;;;;5073468;28;19971;-55
2023/03/10 10:11:45;;;;;;;;;;;1.70;99.90;;;;;;5054999;28;20419;-52
2023/03/10 10:14:14;;;;;;;;;;;1.70;99.90;;;;;;5058920;28;20006;-53
2023/03/10 10:16:41;;;;;;;;;;;1.70;99.90;;;;;;5074020;28;20392;-58
2023/03/10 10:19:11;;;;;;;;;;;1.70;99.90;;;;;;5055698;28;19971;-53
2023/03/10 10:21:39;;;;;;;;;;;1.70;99.90;;;;;;5076204;28;19944;-55
2023/03/10 10:24:06;;;;;;;;;;;1.70;99.90;;;;;;5072536;28;19948;-56
2023/03/10 10:26:32;;;;;;;;;;;1.70;99.90;;;;;;5072802;28;19993;-55
2023/03/10 10:29:03;;;;;;;;;;;1.70;99.90;;;;;;5073249;28;20354;-54
2023/03/10 10:31:30;;;;;;;;;;;1.70;99.90;;;;;;5048492;28;19938;-50
2023/03/10 10:33:57;;;;;;;;;;;1.70;99.90;;;;;;5067249;28;20347;-55
2023/03/10 10:36:24;;;;;;;;;;;1.70;99.90;;;;;;5055071;28;20407;-50
2023/03/10 10:38:51;;;;;;;;;;;1.70;99.90;;;;;;5073409;28;20409;-51
2023/03/10 10:41:19;;;;;;;;;;;1.70;99.90;;;;;;5070705;28;20362;-48
2023/03/10 10:43:46;;;;;;;;;;;1.70;99.90;;;;;;5054580;28;19991;-55
2023/03/10 10:46:15;;;;;;;;;;;1.70;99.90;;;;;;5073908;28;19988;-49
2023/03/10 10:48:42;;;;;;;;;;;1.70;99.90;;;;;;5057661;28;19990;-48
2023/03/10 10:51:18;;;;;;;;;;;1.70;99.90;;;;;;5054932;28;20274;-54
2023/03/10 10:53:45;;;;;;;;;;;1.70;99.90;;;;;;5054356;28;19942;-53
2023/03/10 10:56:12;;;;;;;;;;;1.70;99.90;;;;;;5073143;28;20379;-51
2023/03/10 10:58:39;;;;;;;;;;;1.70;99.90;;;;;;5071997;28;20019;-52
2023/03/10 11:01:06;;;;;;;;;;;1.60;99.90;;;;;;5054780;28;20347;-55
2023/03/10 11:03:35;;;;;;;;;;;1.70;99.90;;;;;;5071302;28;19989;-55
2023/03/10 11:06:02;;;;;;;;;;;1.60;99.90;;;;;;5072291;28;20397;-53
2023/03/10 11:08:31;;;;;;;;;;;1.60;99.90;;;;;;5071595;28;19972;-54
2023/03/10 11:10:59;;;;;;;;;;;1.60;99.90;;;;;;5054529;28;19992;-52
2023/03/10 11:13:28;;;;;;;;;;;1.70;99.90;;;;;;5055345;28;20303;-56
2023/03/10 11:15:55;;;;;;;;;;;1.70;99.90;;;;;;5053651;28;20405;-56
2023/03/10 11:18:23;;;;;;;;;;;1.70;99.90;;;;;;5050888;28;19941;-52
2023/03/10 11:20:53;;;;;;;;;;;1.70;99.90;;;;;;5048805;28;20493;-55
2023/03/10 11:23:22;;;;;;;;;;;1.70;99.90;;;;;;5046787;28;20444;-55
2023/03/10 11:25:49;;;;;;;;;;;1.60;99.90;;;;;;5045600;28;20029;-54
2023/03/10 11:28:22;;;;;;;;;;;1.60;99.90;;;;;;5049012;28;19972;-54
2023/03/10 11:30:49;;;;;;;;;;;1.60;99.90;;;;;;5042770;28;20036;-56
2023/03/10 11:33:19;;;;;;;;;;;1.60;99.90;;;;;;5045354;28;19940;-54
2023/03/10 11:35:46;;;;;;;;;;;1.50;99.90;;;;;;5049085;28;20378;-57
2023/03/10 11:38:18;;;;;;;;;;;1.50;99.90;;;;;;5049082;28;19969;-56
2023/03/10 11:40:47;;;;;;;;;;;1.60;99.90;;;;;;5049311;28;19995;-57
2023/03/10 11:43:16;;;;;;;;;;;1.60;99.90;;;;;;5048958;28;20049;-58
2023/03/10 11:45:44;;;;;;;;;;;1.60;99.90;;;;;;5048243;28;19982;-58
2023/03/10 11:48:17;;;;;;;;;;;1.60;99.90;;;;;;5042675;28;20101;-58
2023/03/10 11:50:44;;;;;;;;;;;1.60;99.90;;;;;;5056011;28;19946;-52
2023/03/10 11:53:12;;;;;;;;;;;1.60;99.90;;;;;;5068232;28;20038;-57
2023/03/10 11:55:40;;;;;;;;;;;1.60;99.90;;;;;;5071912;28;19982;-56
2023/03/10 11:58:07;;;;;;;;;;;1.60;99.90;;;;;;5071983;28;19946;-54
2023/03/10 12:00:34;;;;;;;;;;;1.60;99.90;;;;;;5062877;28;19948;-56
2023/03/10 12:03:06;;;;;;;;;;;1.60;99.90;;;;;;5039474;28;20402;-52
2023/03/10 12:05:36;;;;;;;;;;;1.60;99.90;;;;;;5062794;28;19947;-57
2023/03/10 12:08:02;;;;;;;;;;;1.60;99.90;;;;;;5052243;28;19982;-57
2023/03/10 12:10:30;;;;;;;;;;;1.70;99.90;;;;;;5050850;28;19949;-54
2023/03/10 12:12:59;;;;;;;;;;;1.60;99.90;;;;;;5052850;28;20039;-58
2023/03/10 12:15:27;;;;;;;;;;;1.60;99.90;;;;;;5045231;28;19947;-49
2023/03/10 12:17:54;;;;;;;;;;;1.60;99.90;;;;;;5050525;28;20300;-57
2023/03/10 12:20:25;;;;;;;;;;;1.50;99.90;;;;;;5052033;28;20009;-55
2023/03/10 12:22:52;;;;;;;;;;;1.50;99.90;;;;;;5051768;28;19945;-57
2023/03/10 12:25:37;;;;;;;;;;;1.50;99.90;;;;;;5053668;28;19949;-55
2023/03/10 12:28:32;;;;;;;;;;;1.50;99.90;;;;;;5053874;28;20001;-50
2023/03/10 12:31:00;;;;;;;;;;;1.50;99.90;;;;;;5012953;28;20409;-49
2023/03/10 12:33:46;;;;;;;;;;;1.50;99.90;;;;;;5053092;28;19944;-47
2023/03/10 12:36:14;;;;;;;;;;;1.60;99.90;;;;;;5046410;28;19951;-56
2023/03/10 12:38:46;;;;;;;;;;;1.60;99.90;;;;;;5049620;28;19939;-51
2023/03/10 12:41:12;;;;;;;;;;;1.50;99.90;;;;;;5049470;28;20272;-55
2023/03/10 12:44:03;;;;;;;;;;;1.50;99.90;;;;;;5033826;28;19940;-54
2023/03/10 12:46:45;;;;;;;;;;;1.50;99.90;;;;;;5052080;28;20395;-56
2023/03/10 12:49:16;;;;;;;;;;;1.50;99.90;;;;;;5046908;28;20292;-47
2023/03/10 12:51:44;;;;;;;;;;;1.50;99.90;;;;;;5058147;28;20349;-52
2023/03/10 12:54:34;;;;;;;;;;;1.60;99.90;;;;;;5051846;28;19987;-53
2023/03/10 12:57:02;;;;;;;;;;;1.50;99.90;;;;;;5068752;28;19944;-52
2023/03/10 12:59:31;;;;;;;;;;;1.50;99.90;;;;;;5059170;28;19937;-54
2023/03/10 13:01:59;;;;;;;;;;;1.50;99.90;;;;;;5061577;28;20436;-54
2023/03/10 13:04:26;;;;;;;;;;;1.50;99.90;;;;;;5056308;28;20032;-51
2023/03/10 13:06:55;;;;;;;;;;;1.50;99.90;;;;;;5049531;28;19996;-52
2023/03/10 13:09:22;;;;;;;;;;;1.60;99.90;;;;;;5055302;28;19981;-55
2023/03/10 13:11:50;;;;;;;;;;;1.50;99.90;;;;;;5063785;28;20401;-54
2023/03/10 13:14:17;;;;;;;;;;;1.60;99.90;;;;;;5054062;28;19939;-51
2023/03/10 13:16:52;;;;;;;;;;;1.60;99.90;;;;;;5053014;28;20019;-47
2023/03/10 13:19:20;;;;;;;;;;;1.50;99.90;;;;;;5052508;28;19954;-49
2023/03/10 13:21:47;;;;;;;;;;;1.50;99.90;;;;;;5052835;28;20433;-53
2023/03/10 13:24:21;;;;;;;;;;;1.50;99.90;;;;;;5049517;28;19942;-52
2023/03/10 13:26:48;;;;;;;;;;;1.50;99.90;;;;;;5049003;28;19937;-48
2023/03/10 13:29:16;;;;;;;;;;;1.40;99.90;;;;;;5058263;28;20000;-48
2023/03/10 13:31:44;;;;;;;;;;;1.40;99.90;;;;;;5048983;28;19982;-47
2023/03/10 13:34:11;;;;;;;;;;;1.40;99.90;;;;;;5048245;28;19940;-51
2023/03/10 13:36:39;;;;;;;;;;;1.40;99.90;;;;;;5055655;28;19983;-50
2023/03/10 13:39:14;;;;;;;;;;;1.40;99.90;;;;;;5040696;28;19991;-50
2023/03/10 13:41:41;;;;;;;;;;;1.40;99.90;;;;;;5038075;28;19939;-45
2023/03/10 13:44:13;;;;;;;;;;;1.30;99.90;;;;;;5070242;28;20029;-50
2023/03/10 13:46:40;;;;;;;;;;;1.40;99.90;;;;;;5065268;28;19946;-48
2023/03/10 13:49:06;;;;;;;;;;;1.30;99.90;;;;;;5055770;28;19980;-54
2023/03/10 13:51:33;;;;;;;;;;;1.40;99.90;;;;;;5048633;28;19940;-55
2023/03/10 13:54:13;;;;;;;;;;;1.30;99.90;;;;;;5048863;28;19951;-52
2023/03/10 13:56:40;;;;;;;;;;;1.30;99.90;;;;;;5056230;28;19993;-55
2023/03/10 13:59:11;;;;;;;;;;;1.30;99.90;;;;;;5036567;28;19941;-49
2023/03/10 14:01:39;;;;;;;;;;;1.30;99.90;;;;;;5064521;28;19990;-46
2023/03/10 14:04:07;;;;;;;;;;;1.30;99.90;;;;;;5051125;28;20345;-49
2023/03/10 14:06:34;;;;;;;;;;;1.20;99.90;;;;;;5052573;28;19934;-50
2023/03/10 14:09:13;;;;;;;;;;;1.20;99.90;;;;;;5063668;28;19994;-52
2023/03/10 14:11:39;;;;;;;;;;;1.20;99.90;;;;;;5050853;28;19943;-54
2023/03/10 14:14:07;;;;;;;;;;;1.20;99.90;;;;;;5051838;28;20406;-52
2023/03/10 14:16:43;;;;;;;;;;;1.20;99.90;;;;;;5051752;28;19993;-50
2023/03/10 14:19:10;;;;;;;;;;;1.20;99.90;;;;;;5062181;28;19963;-49
2023/03/10 14:21:38;;;;;;;;;;;1.20;99.90;;;;;;5050353;28;20314;-49
2023/03/10 14:24:05;;;;;;;;;;;1.20;99.90;;;;;;5052247;28;20029;-43
2023/03/10 14:26:34;;;;;;;;;;;1.20;99.90;;;;;;5045928;28;19953;-52
2023/03/10 14:29:01;;;;;;;;;;;1.20;99.90;;;;;;5055198;28;19944;-48
2023/03/10 14:31:28;;;;;;;;;;;1.20;99.90;;;;;;5049681;28;19981;-50
2023/03/10 14:33:54;;;;;;;;;;;1.20;99.90;;;;;;5050810;28;19973;-47